KAL501 RKSI-RJAA
Flight info
| Callsign | KAL501 |
|---|---|
| Flight time | N/A |
| Altitude | 41000 |
| Route | EGOBA2H EGOBA Y697 KARBU DCT LANAT Y51 SAMON Y517 ESKAS Y303 ENTAK/N0478F400 Y30 SWAMP |
| Aircraft | A332/H-SDE3GHIJ2J3J5M1RVWXY/LB2D1 |
Departure
| Time | N/A |
|---|---|
| Airport | Incheon International Airport (RKSI) |
Arrival
| Time | 2026-05-05 04:35 |
|---|---|
| Airport | Narita International Airport (RJAA) |
| Time | Latitude | Longitude | Altitude | Speed | Heading |
|---|---|---|---|---|---|
| 2026-05-05 04:07 | 36.29876 | 140.60572 | 35018 ft | 434 kts | 163° |
| 2026-05-05 04:07 | 36.27448 | 140.62904 | 34428 ft | 444 kts | 154° |
| 2026-05-05 04:08 | 36.25147 | 140.65486 | 33389 ft | 446 kts | 153° |
| 2026-05-05 04:08 | 36.22786 | 140.67947 | 31952 ft | 454 kts | 154° |
| 2026-05-05 04:08 | 36.20416 | 140.70580 | 30716 ft | 460 kts | 151° |
| 2026-05-05 04:08 | 36.18029 | 140.73275 | 29357 ft | 466 kts | 150° |
| 2026-05-05 04:09 | 36.15607 | 140.76012 | 28121 ft | 468 kts | 148° |
| 2026-05-05 04:09 | 36.13283 | 140.78799 | 27109 ft | 468 kts | 143° |
| 2026-05-05 04:09 | 36.11050 | 140.81699 | 26184 ft | 464 kts | 141° |
| 2026-05-05 04:09 | 36.08863 | 140.84619 | 25172 ft | 460 kts | 139° |
| 2026-05-05 04:10 | 36.06698 | 140.87506 | 24332 ft | 455 kts | 138° |
| 2026-05-05 04:10 | 36.04582 | 140.90322 | 23992 ft | 444 kts | 138° |
| 2026-05-05 04:10 | 36.02462 | 140.93133 | 22853 ft | 447 kts | 137° |
| 2026-05-05 04:10 | 36.00312 | 140.95978 | 21502 ft | 454 kts | 136° |
| 2026-05-05 04:11 | 35.98211 | 140.98878 | 20406 ft | 454 kts | 130° |
| 2026-05-05 04:11 | 35.96535 | 141.02149 | 19569 ft | 447 kts | 117° |
| 2026-05-05 04:11 | 35.95451 | 141.05697 | 18635 ft | 439 kts | 102° |
| 2026-05-05 04:11 | 35.94800 | 141.09370 | 17667 ft | 434 kts | 102° |
| 2026-05-05 04:12 | 35.93729 | 141.12775 | 16919 ft | 427 kts | 116° |
| 2026-05-05 04:12 | 35.92066 | 141.15788 | 16098 ft | 419 kts | 131° |
| 2026-05-05 04:12 | 35.89923 | 141.18185 | 15178 ft | 413 kts | 147° |
| 2026-05-05 04:12 | 35.87429 | 141.19846 | 14210 ft | 406 kts | 162° |
| 2026-05-05 04:13 | 35.84703 | 141.20693 | 13235 ft | 397 kts | 178° |
| 2026-05-05 04:13 | 35.82015 | 141.20673 | 12287 ft | 386 kts | 193° |
| 2026-05-05 04:13 | 35.79451 | 141.19811 | 11300 ft | 375 kts | 208° |
| 2026-05-05 04:13 | 35.77252 | 141.18193 | 10326 ft | 363 kts | 223° |
| 2026-05-05 04:14 | 35.75574 | 141.15977 | 9400 ft | 353 kts | 238° |
| 2026-05-05 04:14 | 35.74538 | 141.13299 | 8735 ft | 338 kts | 257° |
| 2026-05-05 04:14 | 35.74261 | 141.10535 | 8530 ft | 313 kts | 271° |
| 2026-05-05 04:14 | 35.74262 | 141.07956 | 8477 ft | 291 kts | 276° |
| 2026-05-05 04:15 | 35.74724 | 141.05569 | 8162 ft | 280 kts | 292° |
| 2026-05-05 04:15 | 35.75560 | 141.03485 | 8145 ft | 271 kts | 301° |
| 2026-05-05 04:15 | 35.76555 | 141.01521 | 8126 ft | 268 kts | 303° |
| 2026-05-05 04:15 | 35.77529 | 140.99602 | 8108 ft | 267 kts | 302° |
| 2026-05-05 04:16 | 35.78475 | 140.97630 | 8090 ft | 267 kts | 300° |
| 2026-05-05 04:16 | 35.79400 | 140.95641 | 8072 ft | 267 kts | 300° |
| 2026-05-05 04:16 | 35.80322 | 140.93657 | 8058 ft | 268 kts | 300° |
| 2026-05-05 04:16 | 35.81252 | 140.91662 | 8043 ft | 268 kts | 300° |
| 2026-05-05 04:17 | 35.82177 | 140.89682 | 8028 ft | 268 kts | 300° |
| 2026-05-05 04:17 | 35.83109 | 140.87686 | 8010 ft | 268 kts | 300° |
| 2026-05-05 04:17 | 35.84031 | 140.85706 | 7989 ft | 268 kts | 300° |
| 2026-05-05 04:17 | 35.84834 | 140.83984 | 7974 ft | 268 kts | 300° |
| 2026-05-05 04:18 | 35.85757 | 140.82002 | 7958 ft | 268 kts | 300° |
| 2026-05-05 04:18 | 35.86700 | 140.79978 | 7646 ft | 274 kts | 300° |
| 2026-05-05 04:18 | 35.87648 | 140.77944 | 7473 ft | 272 kts | 300° |
| 2026-05-05 04:18 | 35.88582 | 140.75931 | 7334 ft | 270 kts | 300° |
| 2026-05-05 04:19 | 35.89508 | 140.73940 | 7128 ft | 270 kts | 300° |
| 2026-05-05 04:19 | 35.90442 | 140.71928 | 6921 ft | 271 kts | 300° |
| 2026-05-05 04:19 | 35.91376 | 140.69916 | 6761 ft | 270 kts | 300° |
| 2026-05-05 04:19 | 35.92297 | 140.67929 | 6377 ft | 266 kts | 300° |
| 2026-05-05 04:20 | 35.93212 | 140.65955 | 5948 ft | 267 kts | 300° |
| 2026-05-05 04:20 | 35.94138 | 140.63954 | 5801 ft | 265 kts | 300° |
| 2026-05-05 04:20 | 35.95043 | 140.62002 | 5632 ft | 265 kts | 300° |
| 2026-05-05 04:20 | 35.95965 | 140.60011 | 5437 ft | 266 kts | 300° |
| 2026-05-05 04:21 | 35.96878 | 140.58038 | 5255 ft | 267 kts | 300° |
| 2026-05-05 04:21 | 35.97559 | 140.55902 | 5074 ft | 267 kts | 279° |
| 2026-05-05 04:21 | 35.97596 | 140.53630 | 4906 ft | 267 kts | 259° |
| 2026-05-05 04:21 | 35.97090 | 140.51835 | 4822 ft | 266 kts | 243° |
| 2026-05-05 04:22 | 35.96138 | 140.49874 | 4669 ft | 266 kts | 236° |
| 2026-05-05 04:22 | 35.95080 | 140.47990 | 4498 ft | 267 kts | 234° |
| 2026-05-05 04:22 | 35.94026 | 140.46122 | 4335 ft | 267 kts | 237° |
| 2026-05-05 04:22 | 35.93037 | 140.44221 | 4221 ft | 259 kts | 239° |
| 2026-05-05 04:23 | 35.92114 | 140.42356 | 4062 ft | 249 kts | 239° |
| 2026-05-05 04:23 | 35.91220 | 140.40541 | 3899 ft | 241 kts | 239° |
| 2026-05-05 04:23 | 35.90366 | 140.38825 | 3771 ft | 232 kts | 239° |
| 2026-05-05 04:23 | 35.89534 | 140.37164 | 3682 ft | 223 kts | 239° |
| 2026-05-05 04:24 | 35.88727 | 140.35557 | 3613 ft | 215 kts | 239° |
| 2026-05-05 04:24 | 35.87970 | 140.34048 | 3554 ft | 204 kts | 239° |
| 2026-05-05 04:24 | 35.87214 | 140.32615 | 3446 ft | 191 kts | 231° |
| 2026-05-05 04:25 | 35.84824 | 140.31663 | 2866 ft | 184 kts | 166° |
| 2026-05-05 04:25 | 35.83647 | 140.32164 | 2962 ft | 179 kts | 153° |
| 2026-05-05 04:25 | 35.82540 | 140.32939 | 2874 ft | 184 kts | 147° |
| 2026-05-05 04:25 | 35.81341 | 140.33517 | 2251 ft | 191 kts | 172° |
| 2026-05-05 04:26 | 35.80058 | 140.33654 | 2154 ft | 179 kts | 178° |
| 2026-05-05 04:26 | 35.78860 | 140.33308 | 2363 ft | 179 kts | 207° |
| 2026-05-05 04:26 | 35.77782 | 140.32530 | 2455 ft | 183 kts | 222° |
| 2026-05-05 04:26 | 35.76953 | 140.31359 | 2446 ft | 179 kts | 235° |
| 2026-05-05 04:27 | 35.76321 | 140.30064 | 2547 ft | 180 kts | 254° |
| 2026-05-05 04:27 | 35.76153 | 140.28550 | 2705 ft | 178 kts | 273° |
| 2026-05-05 04:27 | 35.76406 | 140.27050 | 2821 ft | 179 kts | 288° |
| 2026-05-05 04:27 | 35.76891 | 140.25636 | 2803 ft | 179 kts | 304° |
| 2026-05-05 04:28 | 35.77691 | 140.24481 | 2831 ft | 178 kts | 315° |
| 2026-05-05 04:28 | 35.78580 | 140.23429 | 2820 ft | 177 kts | 317° |
| 2026-05-05 04:28 | 35.79491 | 140.22401 | 2804 ft | 177 kts | 318° |
| 2026-05-05 04:28 | 35.80425 | 140.21407 | 2807 ft | 177 kts | 322° |
| 2026-05-05 04:29 | 35.81398 | 140.20484 | 2814 ft | 177 kts | 323° |
| 2026-05-05 04:29 | 35.82383 | 140.19573 | 2814 ft | 177 kts | 323° |
| 2026-05-05 04:29 | 35.83428 | 140.18771 | 2751 ft | 178 kts | 342° |
| 2026-05-05 04:29 | 35.84634 | 140.18783 | 2777 ft | 176 kts | 20° |
| 2026-05-05 04:30 | 35.85639 | 140.19648 | 2830 ft | 177 kts | 47° |
| 2026-05-05 04:30 | 35.86448 | 140.20816 | 2812 ft | 179 kts | 52° |
| 2026-05-05 04:30 | 35.87203 | 140.22035 | 2803 ft | 179 kts | 53° |
| 2026-05-05 04:30 | 35.87945 | 140.23272 | 2801 ft | 179 kts | 53° |
| 2026-05-05 04:31 | 35.88657 | 140.24519 | 2794 ft | 179 kts | 60° |
| 2026-05-05 04:31 | 35.88961 | 140.25984 | 2780 ft | 178 kts | 85° |
| 2026-05-05 04:31 | 35.89029 | 140.27522 | 2744 ft | 180 kts | 88° |
| 2026-05-05 04:31 | 35.88938 | 140.28991 | 2541 ft | 170 kts | 109° |
| 2026-05-05 04:32 | 35.88212 | 140.30072 | 2391 ft | 165 kts | 147° |
| 2026-05-05 04:32 | 35.87215 | 140.30779 | 2305 ft | 166 kts | 153° |
| 2026-05-05 04:32 | 35.86213 | 140.31387 | 2070 ft | 154 kts | 155° |
| 2026-05-05 04:32 | 35.85277 | 140.31929 | 1838 ft | 145 kts | 155° |
| 2026-05-05 04:33 | 35.84361 | 140.32449 | 1657 ft | 143 kts | 155° |
| 2026-05-05 04:33 | 35.83456 | 140.32959 | 1487 ft | 143 kts | 155° |
| 2026-05-05 04:33 | 35.82549 | 140.33467 | 1305 ft | 144 kts | 156° |
| 2026-05-05 04:33 | 35.81640 | 140.33975 | 1121 ft | 144 kts | 155° |
| 2026-05-05 04:34 | 35.80731 | 140.34482 | 931 ft | 144 kts | 155° |
| 2026-05-05 04:34 | 35.79833 | 140.35027 | 728 ft | 144 kts | 149° |
| 2026-05-05 04:34 | 35.78996 | 140.35688 | 545 ft | 143 kts | 147° |
| 2026-05-05 04:34 | 35.78123 | 140.36299 | 364 ft | 142 kts | 149° |
| 2026-05-05 04:35 | 35.77287 | 140.36920 | 163 ft | 138 kts | 148° |
| 2026-05-05 04:35 | 35.76576 | 140.37435 | 152 ft | 89 kts | 149° |
| 2026-05-05 04:35 | 35.76245 | 140.37682 | 152 ft | 17 kts | 146° |
| 2026-05-05 04:35 | 35.76231 | 140.37694 | 152 ft | 5 kts | 146° |
| 2026-05-05 04:36 | 35.76172 | 140.37749 | 152 ft | 13 kts | 138° |
| 2026-05-05 04:36 | 35.76103 | 140.37826 | 152 ft | 14 kts | 137° |
| 2026-05-05 04:36 | 35.76025 | 140.37913 | 152 ft | 16 kts | 137° |
| 2026-05-05 04:36 | 35.75954 | 140.38014 | 152 ft | 13 kts | 111° |
| 2026-05-05 04:37 | 35.75949 | 140.38035 | 152 ft | 1 kts | 102° |
| 2026-05-05 04:37 | 35.75946 | 140.38051 | 152 ft | 3 kts | 102° |
| 2026-05-05 04:37 | 35.75941 | 140.38081 | 152 ft | 4 kts | 102° |
| 2026-05-05 04:37 | 35.75936 | 140.38107 | 152 ft | 3 kts | 102° |
| 2026-05-05 04:38 | 35.75935 | 140.38109 | 152 ft | 0 kts | 107° |
| 2026-05-05 04:38 | 35.75925 | 140.38136 | 152 ft | 9 kts | 127° |
| 2026-05-05 04:38 | 35.75848 | 140.38217 | 152 ft | 17 kts | 146° |
| 2026-05-05 04:38 | 35.75752 | 140.38302 | 152 ft | 15 kts | 128° |
| 2026-05-05 04:39 | 35.75743 | 140.38401 | 152 ft | 11 kts | 66° |
| 2026-05-05 04:39 | 35.75760 | 140.38486 | 152 ft | 11 kts | 81° |
| 2026-05-05 04:39 | 35.75740 | 140.38534 | 152 ft | 6 kts | 151° |
| 2026-05-05 04:39 | 35.75690 | 140.38570 | 152 ft | 10 kts | 149° |
| 2026-05-05 04:40 | 35.75627 | 140.38622 | 152 ft | 11 kts | 135° |
| 2026-05-05 04:40 | 35.75608 | 140.38699 | 152 ft | 6 kts | 91° |
| 2026-05-05 04:40 | 35.75610 | 140.38714 | 152 ft | 0 kts | 80° |
| 2026-05-05 04:41 | 35.75614 | 140.38734 | 152 ft | 1 kts | 77° |
| 2026-05-05 04:41 | 35.75618 | 140.38750 | 152 ft | 4 kts | 70° |
| 2026-05-05 04:41 | 35.75635 | 140.38800 | 152 ft | 10 kts | 59° |
| 2026-05-05 04:41 | 35.75725 | 140.38876 | 152 ft | 21 kts | 25° |
| 2026-05-05 04:42 | 35.75862 | 140.38950 | 152 ft | 22 kts | 24° |
| 2026-05-05 04:42 | 35.76004 | 140.39028 | 152 ft | 23 kts | 25° |
| 2026-05-05 04:42 | 35.76139 | 140.39105 | 152 ft | 15 kts | 24° |
| 2026-05-05 04:42 | 35.76235 | 140.39157 | 152 ft | 16 kts | 24° |
| 2026-05-05 04:43 | 35.76340 | 140.39215 | 152 ft | 17 kts | 24° |
| 2026-05-05 04:43 | 35.76432 | 140.39265 | 152 ft | 5 kts | 19° |
| 2026-05-05 04:43 | 35.76464 | 140.39267 | 152 ft | 5 kts | 348° |
| 2026-05-05 04:43 | 35.76495 | 140.39245 | 152 ft | 7 kts | 324° |
| 2026-05-05 04:44 | 35.76537 | 140.39205 | 152 ft | 8 kts | 319° |
| 2026-05-05 04:44 | 35.76566 | 140.39153 | 152 ft | 8 kts | 298° |
| 2026-05-05 04:44 | 35.76586 | 140.39103 | 152 ft | 0 kts | 296° |
| 2026-05-05 04:44 | 35.76588 | 140.39098 | 152 ft | 1 kts | 296° |
| 2026-05-05 04:45 | 35.76592 | 140.39086 | 152 ft | 0 kts | 296° |